sensor_id;sensor_type;location;lat;lon;timestamp;temperature;humidity
11136;DHT22;5622;50.840;4.948;2023-04-24T05:19:45;8.90;99.90
11136;DHT22;5622;50.840;4.948;2023-04-24T05:24:49;9.00;99.90
11136;DHT22;5622;50.840;4.948;2023-04-24T05:27:18;8.90;99.90
11136;DHT22;5622;50.840;4.948;2023-04-24T05:30:04;9.00;99.90
11136;DHT22;5622;50.840;4.948;2023-04-24T05:32:56;9.00;99.90
11136;DHT22;5622;50.840;4.948;2023-04-24T05:38:43;8.90;99.90
11136;DHT22;5622;50.840;4.948;2023-04-24T05:41:13;9.00;99.90
11136;DHT22;5622;50.840;4.948;2023-04-24T05:43:43;9.00;99.90
11136;DHT22;5622;50.840;4.948;2023-04-24T05:46:16;8.90;99.90
11136;DHT22;5622;50.840;4.948;2023-04-24T05:48:54;8.90;99.90
11136;DHT22;5622;50.840;4.948;2023-04-24T05:51:21;9.10;99.90
11136;DHT22;5622;50.840;4.948;2023-04-24T05:53:50;8.90;99.90
11136;DHT22;5622;50.840;4.948;2023-04-24T05:56:18;8.90;99.90
11136;DHT22;5622;50.840;4.948;2023-04-24T05:58:46;8.90;99.90
11136;DHT22;5622;50.840;4.948;2023-04-24T06:01:14;9.10;99.90
11136;DHT22;5622;50.840;4.948;2023-04-24T06:03:41;8.90;99.90
11136;DHT22;5622;50.840;4.948;2023-04-24T06:06:11;9.00;99.90
11136;DHT22;5622;50.840;4.948;2023-04-24T06:08:41;9.40;99.90
11136;DHT22;5622;50.840;4.948;2023-04-24T06:11:12;9.00;99.90
11136;DHT22;5622;50.840;4.948;2023-04-24T06:13:48;10.10;99.90
11136;DHT22;5622;50.840;4.948;2023-04-24T06:16:18;9.00;99.90
11136;DHT22;5622;50.840;4.948;2023-04-24T06:18:51;9.00;99.90
11136;DHT22;5622;50.840;4.948;2023-04-24T06:21:28;9.00;99.90
11136;DHT22;5622;50.840;4.948;2023-04-24T06:24:17;9.00;99.90
11136;DHT22;5622;50.840;4.948;2023-04-24T06:26:49;9.00;99.90
11136;DHT22;5622;50.840;4.948;2023-04-24T06:29:16;8.90;99.90
11136;DHT22;5622;50.840;4.948;2023-04-24T06:31:44;9.00;99.90
11136;DHT22;5622;50.840;4.948;2023-04-24T06:34:20;9.00;99.90
11136;DHT22;5622;50.840;4.948;2023-04-24T06:37:11;9.00;99.90
11136;DHT22;5622;50.840;4.948;2023-04-24T06:39:40;8.90;99.90
11136;DHT22;5622;50.840;4.948;2023-04-24T06:42:34;9.70;99.90
11136;DHT22;5622;50.840;4.948;2023-04-24T06:45:20;9.00;99.90
11136;DHT22;5622;50.840;4.948;2023-04-24T06:47:50;9.00;99.90
11136;DHT22;5622;50.840;4.948;2023-04-24T06:50:19;9.00;99.90
11136;DHT22;5622;50.840;4.948;2023-04-24T06:52:46;9.00;99.90
11136;DHT22;5622;50.840;4.948;2023-04-24T06:55:14;8.90;99.90
11136;DHT22;5622;50.840;4.948;2023-04-24T06:57:43;8.90;99.90
11136;DHT22;5622;50.840;4.948;2023-04-24T07:00:12;8.90;99.90
11136;DHT22;5622;50.840;4.948;2023-04-24T07:02:41;8.90;99.90
11136;DHT22;5622;50.840;4.948;2023-04-24T07:05:11;8.90;99.90
11136;DHT22;5622;50.840;4.948;2023-04-24T07:07:43;8.90;99.90
11136;DHT22;5622;50.840;4.948;2023-04-24T07:10:25;9.00;99.90
11136;DHT22;5622;50.840;4.948;2023-04-24T07:12:57;8.90;99.90
11136;DHT22;5622;50.840;4.948;2023-04-24T07:15:29;8.70;99.90
11136;DHT22;5622;50.840;4.948;2023-04-24T07:18:01;8.90;99.90
11136;DHT22;5622;50.840;4.948;2023-04-24T07:20:41;8.90;99.90
11136;DHT22;5622;50.840;4.948;2023-04-24T07:23:17;8.90;99.90
11136;DHT22;5622;50.840;4.948;2023-04-24T07:25:46;8.90;99.90
11136;DHT22;5622;50.840;4.948;2023-04-24T07:28:15;8.90;99.90
11136;DHT22;5622;50.840;4.948;2023-04-24T07:30:43;9.00;99.90
11136;DHT22;5622;50.840;4.948;2023-04-24T07:33:10;8.90;99.90
11136;DHT22;5622;50.840;4.948;2023-04-24T07:35:39;9.00;99.90
11136;DHT22;5622;50.840;4.948;2023-04-24T07:38:06;8.90;99.90
11136;DHT22;5622;50.840;4.948;2023-04-24T07:40:33;8.90;99.90
11136;DHT22;5622;50.840;4.948;2023-04-24T07:43:01;9.10;99.90
11136;DHT22;5622;50.840;4.948;2023-04-24T07:45:29;9.00;99.90
11136;DHT22;5622;50.840;4.948;2023-04-24T07:47:59;9.00;99.90
11136;DHT22;5622;50.840;4.948;2023-04-24T07:50:26;9.00;99.90
11136;DHT22;5622;50.840;4.948;2023-04-24T07:52:54;9.00;99.90
11136;DHT22;5622;50.840;4.948;2023-04-24T07:55:21;9.10;99.90
11136;DHT22;5622;50.840;4.948;2023-04-24T07:57:49;9.10;99.90
11136;DHT22;5622;50.840;4.948;2023-04-24T08:00:18;9.00;99.90
11136;DHT22;5622;50.840;4.948;2023-04-24T08:02:47;9.00;99.90
11136;DHT22;5622;50.840;4.948;2023-04-24T08:05:15;9.10;99.90
11136;DHT22;5622;50.840;4.948;2023-04-24T08:07:43;9.10;99.90
11136;DHT22;5622;50.840;4.948;2023-04-24T08:10:11;9.10;99.90
11136;DHT22;5622;50.840;4.948;2023-04-24T08:12:39;9.10;99.90
11136;DHT22;5622;50.840;4.948;2023-04-24T08:15:07;9.00;99.90
11136;DHT22;5622;50.840;4.948;2023-04-24T08:17:35;9.00;99.90
11136;DHT22;5622;50.840;4.948;2023-04-24T08:20:04;10.40;99.90
11136;DHT22;5622;50.840;4.948;2023-04-24T08:22:35;8.90;99.90
11136;DHT22;5622;50.840;4.948;2023-04-24T08:25:03;9.00;99.90
11136;DHT22;5622;50.840;4.948;2023-04-24T08:27:31;9.00;99.90
11136;DHT22;5622;50.840;4.948;2023-04-24T08:29:58;9.00;99.90
11136;DHT22;5622;50.840;4.948;2023-04-24T08:32:26;9.10;99.90
11136;DHT22;5622;50.840;4.948;2023-04-24T08:34:54;9.20;99.90
11136;DHT22;5622;50.840;4.948;2023-04-24T08:37:23;9.50;99.90
11136;DHT22;5622;50.840;4.948;2023-04-24T08:39:50;9.60;99.90
11136;DHT22;5622;50.840;4.948;2023-04-24T08:42:19;9.70;99.90
11136;DHT22;5622;50.840;4.948;2023-04-24T08:44:47;9.80;99.90
11136;DHT22;5622;50.840;4.948;2023-04-24T08:47:15;9.80;99.90
11136;DHT22;5622;50.840;4.948;2023-04-24T08:49:43;9.90;99.90
11136;DHT22;5622;50.840;4.948;2023-04-24T08:52:12;9.90;99.90
11136;DHT22;5622;50.840;4.948;2023-04-24T08:54:42;9.80;99.90
11136;DHT22;5622;50.840;4.948;2023-04-24T08:57:12;9.80;99.90
11136;DHT22;5622;50.840;4.948;2023-04-24T08:59:40;9.70;99.90
11136;DHT22;5622;50.840;4.948;2023-04-24T09:02:10;9.70;99.90
11136;DHT22;5622;50.840;4.948;2023-04-24T09:04:38;9.60;99.90
11136;DHT22;5622;50.840;4.948;2023-04-24T09:07:08;9.40;99.90
11136;DHT22;5622;50.840;4.948;2023-04-24T09:09:38;9.60;99.90
11136;DHT22;5622;50.840;4.948;2023-04-24T09:12:07;9.60;99.90
11136;DHT22;5622;50.840;4.948;2023-04-24T09:14:36;9.70;99.90
11136;DHT22;5622;50.840;4.948;2023-04-24T09:17:05;9.80;99.90
11136;DHT22;5622;50.840;4.948;2023-04-24T10:14:36;11.20;99.90
11136;DHT22;5622;50.840;4.948;2023-04-24T10:17:07;11.10;99.90
11136;DHT22;5622;50.840;4.948;2023-04-24T10:19:37;11.00;99.90
11136;DHT22;5622;50.840;4.948;2023-04-24T10:22:10;10.90;99.90
11136;DHT22;5622;50.840;4.948;2023-04-24T10:24:52;10.90;99.90
11136;DHT22;5622;50.840;4.948;2023-04-24T10:27:25;11.30;99.90
11136;DHT22;5622;50.840;4.948;2023-04-24T10:30:06;11.20;99.90
11136;DHT22;5622;50.840;4.948;2023-04-24T10:32:34;11.10;99.90
11136;DHT22;5622;50.840;4.948;2023-04-24T10:35:07;11.30;99.90
11136;DHT22;5622;50.840;4.948;2023-04-24T10:37:48;11.60;99.90
11136;DHT22;5622;50.840;4.948;2023-04-24T10:40:35;12.00;99.90
11136;DHT22;5622;50.840;4.948;2023-04-24T10:43:06;12.00;99.90
11136;DHT22;5622;50.840;4.948;2023-04-24T10:45:39;12.00;99.90
11136;DHT22;5622;50.840;4.948;2023-04-24T10:48:11;11.80;99.90
11136;DHT22;5622;50.840;4.948;2023-04-24T10:50:44;11.40;99.90
11136;DHT22;5622;50.840;4.948;2023-04-24T10:53:15;11.90;99.90
11136;DHT22;5622;50.840;4.948;2023-04-24T10:55:45;11.50;99.90
11136;DHT22;5622;50.840;4.948;2023-04-24T10:58:15;11.80;99.90
11136;DHT22;5622;50.840;4.948;2023-04-24T11:00:56;11.70;99.90
11136;DHT22;5622;50.840;4.948;2023-04-24T11:03:28;11.60;99.90
11136;DHT22;5622;50.840;4.948;2023-04-24T11:05:59;11.70;99.90
11136;DHT22;5622;50.840;4.948;2023-04-24T11:08:32;11.50;99.90
11136;DHT22;5622;50.840;4.948;2023-04-24T11:11:03;11.70;99.90
11136;DHT22;5622;50.840;4.948;2023-04-24T11:14:06;11.70;99.90
11136;DHT22;5622;50.840;4.948;2023-04-24T11:16:53;11.70;99.90
11136;DHT22;5622;50.840;4.948;2023-04-24T11:19:27;11.50;99.90
11136;DHT22;5622;50.840;4.948;2023-04-24T11:21:57;11.70;99.90
11136;DHT22;5622;50.840;4.948;2023-04-24T11:24:49;11.70;99.90
11136;DHT22;5622;50.840;4.948;2023-04-24T11:27:24;11.70;99.90
11136;DHT22;5622;50.840;4.948;2023-04-24T11:30:04;11.70;99.90
11136;DHT22;5622;50.840;4.948;2023-04-24T11:32:39;11.90;99.90
11136;DHT22;5622;50.840;4.948;2023-04-24T11:35:15;11.60;99.90
11136;DHT22;5622;50.840;4.948;2023-04-24T11:37:47;11.60;99.90
11136;DHT22;5622;50.840;4.948;2023-04-24T11:40:17;11.60;99.90
11136;DHT22;5622;50.840;4.948;2023-04-24T11:42:47;11.80;99.90
11136;DHT22;5622;50.840;4.948;2023-04-24T11:45:22;11.90;99.90
11136;DHT22;5622;50.840;4.948;2023-04-24T11:48:05;11.80;99.90
11136;DHT22;5622;50.840;4.948;2023-04-24T11:50:49;11.80;99.90
11136;DHT22;5622;50.840;4.948;2023-04-24T11:53:23;11.80;99.90
11136;DHT22;5622;50.840;4.948;2023-04-24T11:56:04;11.80;99.90
11136;DHT22;5622;50.840;4.948;2023-04-24T11:58:42;11.80;99.90
11136;DHT22;5622;50.840;4.948;2023-04-24T12:01:25;11.80;99.90
11136;DHT22;5622;50.840;4.948;2023-04-24T12:04:02;11.80;99.90
11136;DHT22;5622;50.840;4.948;2023-04-24T12:06:30;11.80;99.90
11136;DHT22;5622;50.840;4.948;2023-04-24T12:08:58;11.80;99.90
11136;DHT22;5622;50.840;4.948;2023-04-24T12:11:29;11.80;99.90
11136;DHT22;5622;50.840;4.948;2023-04-24T12:14:10;11.90;99.90
11136;DHT22;5622;50.840;4.948;2023-04-24T12:16:46;11.90;99.90
11136;DHT22;5622;50.840;4.948;2023-04-24T12:19:24;12.00;99.90
11136;DHT22;5622;50.840;4.948;2023-04-24T12:22:01;11.90;99.90
11136;DHT22;5622;50.840;4.948;2023-04-24T12:24:31;11.90;99.90
11136;DHT22;5622;50.840;4.948;2023-04-24T12:27:19;11.70;99.90
11136;DHT22;5622;50.840;4.948;2023-04-24T12:30:01;11.90;99.90
11136;DHT22;5622;50.840;4.948;2023-04-24T12:32:45;11.10;99.90
11136;DHT22;5622;50.840;4.948;2023-04-24T12:42:33;12.00;99.90
11136;DHT22;5622;50.840;4.948;2023-04-24T12:45:14;12.10;99.90
11136;DHT22;5622;50.840;4.948;2023-04-24T12:47:51;12.10;99.90
11136;DHT22;5622;50.840;4.948;2023-04-24T12:50:22;12.70;99.90
11136;DHT22;5622;50.840;4.948;2023-04-24T12:53:05;12.00;99.90
11136;DHT22;5622;50.840;4.948;2023-04-24T12:55:49;12.00;99.90
11136;DHT22;5622;50.840;4.948;2023-04-24T12:58:39;12.10;99.90
11136;DHT22;5622;50.840;4.948;2023-04-24T13:07:48;12.20;99.90
11136;DHT22;5622;50.840;4.948;2023-04-24T13:11:14;12.30;99.90
11136;DHT22;5622;50.840;4.948;2023-04-24T13:14:02;12.30;99.90
11136;DHT22;5622;50.840;4.948;2023-04-24T13:16:43;12.50;99.90
11136;DHT22;5622;50.840;4.948;2023-04-24T13:26:20;12.60;99.90
11136;DHT22;5622;50.840;4.948;2023-04-24T13:28:51;12.70;99.90
11136;DHT22;5622;50.840;4.948;2023-04-24T13:31:35;12.70;99.90
11136;DHT22;5622;50.840;4.948;2023-04-24T13:34:17;12.80;99.90
11136;DHT22;5622;50.840;4.948;2023-04-24T13:36:59;12.80;99.90
11136;DHT22;5622;50.840;4.948;2023-04-24T13:39:31;12.90;99.90
11136;DHT22;5622;50.840;4.948;2023-04-24T13:42:07;13.00;99.90
11136;DHT22;5622;50.840;4.948;2023-04-24T13:44:47;13.00;99.90
11136;DHT22;5622;50.840;4.948;2023-04-24T14:45:20;12.70;99.90
11136;DHT22;5622;50.840;4.948;2023-04-24T14:48:02;12.70;99.90
11136;DHT22;5622;50.840;4.948;2023-04-24T14:50:39;12.70;99.90
11136;DHT22;5622;50.840;4.948;2023-04-24T14:53:49;12.70;99.90
11136;DHT22;5622;50.840;4.948;2023-04-24T14:56:44;12.60;99.90
11136;DHT22;5622;50.840;4.948;2023-04-24T15:28:53;12.50;99.90
11136;DHT22;5622;50.840;4.948;2023-04-24T15:38:16;12.30;99.90
11136;DHT22;5622;50.840;4.948;2023-04-24T15:48:06;12.30;99.90
11136;DHT22;5622;50.840;4.948;2023-04-24T15:51:01;12.30;99.90
11136;DHT22;5622;50.840;4.948;2023-04-24T15:54:03;12.30;99.90
11136;DHT22;5622;50.840;4.948;2023-04-24T15:57:02;13.10;99.90
11136;DHT22;5622;50.840;4.948;2023-04-24T17:32:32;11.50;99.90
11136;DHT22;5622;50.840;4.948;2023-04-24T17:35:07;11.50;99.90
11136;DHT22;5622;50.840;4.948;2023-04-24T17:37:42;11.50;99.90
11136;DHT22;5622;50.840;4.948;2023-04-24T17:40:15;11.40;99.90
11136;DHT22;5622;50.840;4.948;2023-04-24T17:42:45;11.50;99.90
11136;DHT22;5622;50.840;4.948;2023-04-24T17:45:13;11.50;99.90
11136;DHT22;5622;50.840;4.948;2023-04-24T17:50:22;11.40;99.90
11136;DHT22;5622;50.840;4.948;2023-04-24T17:52:49;11.40;99.90
11136;DHT22;5622;50.840;4.948;2023-04-24T17:55:18;11.40;99.90
11136;DHT22;5622;50.840;4.948;2023-04-24T17:57:46;11.40;99.90
11136;DHT22;5622;50.840;4.948;2023-04-24T18:00:17;11.30;99.90
11136;DHT22;5622;50.840;4.948;2023-04-24T18:02:46;11.20;99.90
11136;DHT22;5622;50.840;4.948;2023-04-24T18:05:18;11.20;99.90
11136;DHT22;5622;50.840;4.948;2023-04-24T18:07:49;11.10;99.90
11136;DHT22;5622;50.840;4.948;2023-04-24T18:10:16;11.10;99.90
11136;DHT22;5622;50.840;4.948;2023-04-24T18:12:44;11.10;99.90
11136;DHT22;5622;50.840;4.948;2023-04-24T18:15:12;11.00;99.90
11136;DHT22;5622;50.840;4.948;2023-04-24T18:17:40;10.20;99.90
11136;DHT22;5622;50.840;4.948;2023-04-24T18:20:10;10.90;99.90
11136;DHT22;5622;50.840;4.948;2023-04-24T18:22:41;10.90;99.90
11136;DHT22;5622;50.840;4.948;2023-04-24T18:25:10;10.90;99.90
11136;DHT22;5622;50.840;4.948;2023-04-24T18:27:43;10.90;99.90
11136;DHT22;5622;50.840;4.948;2023-04-24T18:30:14;10.90;99.90
11136;DHT22;5622;50.840;4.948;2023-04-24T18:32:42;10.90;99.90
11136;DHT22;5622;50.840;4.948;2023-04-24T18:35:09;10.90;99.90
11136;DHT22;5622;50.840;4.948;2023-04-24T18:37:41;10.90;99.90
11136;DHT22;5622;50.840;4.948;2023-04-24T18:40:12;10.80;99.90
11136;DHT22;5622;50.840;4.948;2023-04-24T18:42:40;10.80;99.90
11136;DHT22;5622;50.840;4.948;2023-04-24T18:45:08;10.80;99.90
11136;DHT22;5622;50.840;4.948;2023-04-24T18:47:35;10.70;99.90
11136;DHT22;5622;50.840;4.948;2023-04-24T18:50:05;10.80;99.90
11136;DHT22;5622;50.840;4.948;2023-04-24T18:52:36;10.70;99.90
11136;DHT22;5622;50.840;4.948;2023-04-24T18:55:05;10.60;99.90
11136;DHT22;5622;50.840;4.948;2023-04-24T18:57:39;10.60;99.90
11136;DHT22;5622;50.840;4.948;2023-04-24T19:00:20;10.60;99.90
11136;DHT22;5622;50.840;4.948;2023-04-24T19:03:00;10.60;99.90
11136;DHT22;5622;50.840;4.948;2023-04-24T19:13:21;10.50;99.90
11136;DHT22;5622;50.840;4.948;2023-04-24T19:15:50;10.80;99.90
11136;DHT22;5622;50.840;4.948;2023-04-24T19:18:29;10.40;99.90
11136;DHT22;5622;50.840;4.948;2023-04-24T19:20:56;10.50;99.90
11136;DHT22;5622;50.840;4.948;2023-04-24T19:23:29;10.40;99.90
11136;DHT22;5622;50.840;4.948;2023-04-24T19:25:58;10.40;99.90
11136;DHT22;5622;50.840;4.948;2023-04-24T19:28:36;10.40;99.90
11136;DHT22;5622;50.840;4.948;2023-04-24T19:31:03;10.30;99.90
11136;DHT22;5622;50.840;4.948;2023-04-24T19:33:31;10.30;99.90
11136;DHT22;5622;50.840;4.948;2023-04-24T19:35:59;10.20;99.90
11136;DHT22;5622;50.840;4.948;2023-04-24T19:38:27;10.30;99.90
11136;DHT22;5622;50.840;4.948;2023-04-24T19:40:54;10.10;99.90
11136;DHT22;5622;50.840;4.948;2023-04-24T19:43:21;10.20;99.90
11136;DHT22;5622;50.840;4.948;2023-04-24T19:45:59;10.30;99.90
11136;DHT22;5622;50.840;4.948;2023-04-24T19:48:27;10.20;99.90
11136;DHT22;5622;50.840;4.948;2023-04-24T19:50:57;10.20;99.90
11136;DHT22;5622;50.840;4.948;2023-04-24T19:53:32;10.20;99.90
11136;DHT22;5622;50.840;4.948;2023-04-24T19:56:02;10.20;99.90
11136;DHT22;5622;50.840;4.948;2023-04-24T19:58:30;10.10;99.90
11136;DHT22;5622;50.840;4.948;2023-04-24T20:00:59;10.00;99.90
11136;DHT22;5622;50.840;4.948;2023-04-24T20:03:28;10.00;99.90
11136;DHT22;5622;50.840;4.948;2023-04-24T20:06:02;10.00;99.90
11136;DHT22;5622;50.840;4.948;2023-04-24T20:08:30;10.00;99.90
11136;DHT22;5622;50.840;4.948;2023-04-24T20:10:57;9.90;99.90
11136;DHT22;5622;50.840;4.948;2023-04-24T20:13:27;9.90;99.90
11136;DHT22;5622;50.840;4.948;2023-04-24T20:15:57;9.90;99.90
11136;DHT22;5622;50.840;4.948;2023-04-24T20:18:49;9.90;99.90
11136;DHT22;5622;50.840;4.948;2023-04-24T20:21:43;10.00;99.90
11136;DHT22;5622;50.840;4.948;2023-04-24T20:24:21;9.80;99.90
11136;DHT22;5622;50.840;4.948;2023-04-24T20:26:49;9.90;99.90
11136;DHT22;5622;50.840;4.948;2023-04-24T20:29:21;9.90;99.90
11136;DHT22;5622;50.840;4.948;2023-04-24T20:31:51;9.90;99.90
11136;DHT22;5622;50.840;4.948;2023-04-24T20:34:30;9.90;99.90
11136;DHT22;5622;50.840;4.948;2023-04-24T20:36:59;10.10;99.90
11136;DHT22;5622;50.840;4.948;2023-04-24T20:39:32;9.80;99.90
11136;DHT22;5622;50.840;4.948;2023-04-24T20:42:04;9.90;99.90
11136;DHT22;5622;50.840;4.948;2023-04-24T20:44:40;9.90;99.90
11136;DHT22;5622;50.840;4.948;2023-04-24T20:47:27;9.80;99.90
11136;DHT22;5622;50.840;4.948;2023-04-24T20:50:00;10.00;99.90
11136;DHT22;5622;50.840;4.948;2023-04-24T20:52:28;9.80;99.90
11136;DHT22;5622;50.840;4.948;2023-04-24T20:54:57;9.70;99.90
11136;DHT22;5622;50.840;4.948;2023-04-24T20:57:32;9.60;99.90
11136;DHT22;5622;50.840;4.948;2023-04-24T21:00:00;9.50;99.90
11136;DHT22;5622;50.840;4.948;2023-04-24T21:02:34;9.70;99.90
11136;DHT22;5622;50.840;4.948;2023-04-24T21:05:12;9.40;99.90
11136;DHT22;5622;50.840;4.948;2023-04-24T21:07:43;9.60;99.90
11136;DHT22;5622;50.840;4.948;2023-04-24T21:10:22;9.60;99.90
11136;DHT22;5622;50.840;4.948;2023-04-24T21:13:04;9.60;99.90
11136;DHT22;5622;50.840;4.948;2023-04-24T21:15:33;9.60;99.90
11136;DHT22;5622;50.840;4.948;2023-04-24T21:18:04;9.60;99.90
11136;DHT22;5622;50.840;4.948;2023-04-24T21:20:36;9.60;99.90
11136;DHT22;5622;50.840;4.948;2023-04-24T21:23:04;9.60;99.90
11136;DHT22;5622;50.840;4.948;2023-04-24T21:25:31;9.60;99.90
11136;DHT22;5622;50.840;4.948;2023-04-24T21:27:59;9.60;99.90
11136;DHT22;5622;50.840;4.948;2023-04-24T21:30:29;9.50;99.90
11136;DHT22;5622;50.840;4.948;2023-04-24T21:33:02;9.60;99.90
11136;DHT22;5622;50.840;4.948;2023-04-24T21:35:33;9.60;99.90
11136;DHT22;5622;50.840;4.948;2023-04-24T21:38:03;9.60;99.90
11136;DHT22;5622;50.840;4.948;2023-04-24T21:40:31;10.50;99.90
11136;DHT22;5622;50.840;4.948;2023-04-24T21:42:58;9.50;99.90
11136;DHT22;5622;50.840;4.948;2023-04-24T21:45:26;9.50;99.90
11136;DHT22;5622;50.840;4.948;2023-04-24T21:47:55;9.70;99.90
11136;DHT22;5622;50.840;4.948;2023-04-24T21:50:24;9.50;99.90
11136;DHT22;5622;50.840;4.948;2023-04-24T21:52:54;9.50;99.90
11136;DHT22;5622;50.840;4.948;2023-04-24T21:55:25;9.50;99.90
11136;DHT22;5622;50.840;4.948;2023-04-24T21:57:58;9.40;99.90
11136;DHT22;5622;50.840;4.948;2023-04-24T22:00:28;9.60;99.90
11136;DHT22;5622;50.840;4.948;2023-04-24T22:03:00;9.50;99.90
11136;DHT22;5622;50.840;4.948;2023-04-24T22:05:37;9.60;99.90
11136;DHT22;5622;50.840;4.948;2023-04-24T22:08:08;9.60;99.90
11136;DHT22;5622;50.840;4.948;2023-04-24T22:10:40;9.60;99.90
11136;DHT22;5622;50.840;4.948;2023-04-24T22:13:10;9.90;99.90
11136;DHT22;5622;50.840;4.948;2023-04-24T22:15:54;9.60;99.90
11136;DHT22;5622;50.840;4.948;2023-04-24T22:18:24;9.40;99.90
11136;DHT22;5622;50.840;4.948;2023-04-24T22:20:57;9.60;99.90
11136;DHT22;5622;50.840;4.948;2023-04-24T22:23:30;9.60;99.90
11136;DHT22;5622;50.840;4.948;2023-04-24T22:26:07;9.40;99.90
11136;DHT22;5622;50.840;4.948;2023-04-24T22:28:37;9.40;99.90
11136;DHT22;5622;50.840;4.948;2023-04-24T22:31:06;9.40;99.90
11136;DHT22;5622;50.840;4.948;2023-04-24T22:33:36;9.40;99.90
11136;DHT22;5622;50.840;4.948;2023-04-24T22:36:07;9.40;99.90
11136;DHT22;5622;50.840;4.948;2023-04-24T22:38:35;9.40;99.90
11136;DHT22;5622;50.840;4.948;2023-04-24T22:41:07;9.40;99.90
11136;DHT22;5622;50.840;4.948;2023-04-24T22:43:37;9.40;99.90
11136;DHT22;5622;50.840;4.948;2023-04-24T22:46:06;9.40;99.90
11136;DHT22;5622;50.840;4.948;2023-04-24T22:48:48;9.30;99.90
11136;DHT22;5622;50.840;4.948;2023-04-24T22:51:23;9.30;99.90
11136;DHT22;5622;50.840;4.948;2023-04-24T22:53:54;9.30;99.90
11136;DHT22;5622;50.840;4.948;2023-04-24T22:56:27;9.30;99.90
11136;DHT22;5622;50.840;4.948;2023-04-24T22:58:55;9.10;99.90
11136;DHT22;5622;50.840;4.948;2023-04-24T23:01:25;9.10;99.90
11136;DHT22;5622;50.840;4.948;2023-04-24T23:03:55;9.00;99.90
11136;DHT22;5622;50.840;4.948;2023-04-24T23:06:28;9.10;99.90
11136;DHT22;5622;50.840;4.948;2023-04-24T23:09:01;9.00;99.90
11136;DHT22;5622;50.840;4.948;2023-04-24T23:11:38;9.10;99.90
11136;DHT22;5622;50.840;4.948;2023-04-24T23:14:37;9.10;99.90
11136;DHT22;5622;50.840;4.948;2023-04-24T23:17:07;9.10;99.90
11136;DHT22;5622;50.840;4.948;2023-04-24T23:19:45;9.10;99.90
11136;DHT22;5622;50.840;4.948;2023-04-24T23:22:18;9.00;99.90
11136;DHT22;5622;50.840;4.948;2023-04-24T23:24:46;9.10;99.90
11136;DHT22;5622;50.840;4.948;2023-04-24T23:27:23;9.60;99.90
11136;DHT22;5622;50.840;4.948;2023-04-24T23:29:57;9.00;99.90
11136;DHT22;5622;50.840;4.948;2023-04-24T23:32:36;9.00;99.90
11136;DHT22;5622;50.840;4.948;2023-04-24T23:35:11;9.00;99.90
11136;DHT22;5622;50.840;4.948;2023-04-24T23:37:41;9.00;99.90
11136;DHT22;5622;50.840;4.948;2023-04-24T23:40:09;8.90;99.90
11136;DHT22;5622;50.840;4.948;2023-04-24T23:42:43;8.90;99.90
11136;DHT22;5622;50.840;4.948;2023-04-24T23:45:16;8.80;99.90
11136;DHT22;5622;50.840;4.948;2023-04-24T23:47:59;8.80;99.90
11136;DHT22;5622;50.840;4.948;2023-04-24T23:50:28;8.80;99.90
11136;DHT22;5622;50.840;4.948;2023-04-24T23:53:03;8.70;99.90
11136;DHT22;5622;50.840;4.948;2023-04-24T23:55:36;8.80;99.90
11136;DHT22;5622;50.840;4.948;2023-04-24T23:58:11;8.80;99.90
